createdAt,value
2023-04-11T00:01:09.109Z,11.68
2023-04-11T00:03:39.026Z,11.69
2023-04-11T00:06:06.075Z,11.68
2023-04-11T00:08:32.443Z,11.66
2023-04-11T00:10:58.853Z,11.69
2023-04-11T00:13:26.699Z,11.62
2023-04-11T00:15:55.559Z,11.67
2023-04-11T00:18:22.812Z,11.48
2023-04-11T00:20:49.361Z,11.46
2023-04-11T00:23:16.089Z,11.64
2023-04-11T00:25:42.620Z,11.63
2023-04-11T00:28:10.447Z,11.60
2023-04-11T00:30:36.931Z,11.61
2023-04-11T00:33:04.018Z,11.58
2023-04-11T00:35:34.444Z,11.58
2023-04-11T00:38:02.081Z,11.63
2023-04-11T00:40:28.601Z,11.60
2023-04-11T00:42:56.441Z,11.52
2023-04-11T00:45:23.418Z,11.35
2023-04-11T00:47:51.096Z,11.33
2023-04-11T00:50:18.782Z,11.55
2023-04-11T00:52:49.562Z,11.44
2023-04-11T00:55:16.704Z,11.51
2023-04-11T00:57:44.667Z,11.50
2023-04-11T01:00:11.979Z,11.49
2023-04-11T01:02:43.019Z,11.42
2023-04-11T01:05:11.462Z,11.30
2023-04-11T01:07:39.888Z,11.32
2023-04-11T01:10:09.468Z,11.47
2023-04-11T01:12:37.296Z,11.26
2023-04-11T01:15:04.649Z,11.40
2023-04-11T01:17:32.522Z,11.48
2023-04-11T01:19:59.962Z,11.34
2023-04-11T01:22:28.026Z,11.23
2023-04-11T01:24:54.448Z,11.18
2023-04-11T01:27:20.874Z,11.36
2023-04-11T01:29:47.313Z,11.46
2023-04-11T01:32:13.721Z,11.47
2023-04-11T01:34:43.872Z,11.43
2023-04-11T01:37:10.490Z,11.41
2023-04-11T01:39:36.953Z,11.38
2023-04-11T01:42:04.512Z,11.38
2023-04-11T01:44:33.072Z,11.27
2023-04-11T01:46:59.844Z,11.37
2023-04-11T01:49:26.469Z,11.35
2023-04-11T01:51:53.194Z,11.35
2023-04-11T01:54:19.633Z,11.30
2023-04-11T01:56:46.403Z,11.31
2023-04-11T01:59:13.113Z,11.20
2023-04-11T02:01:42.262Z,11.25
2023-04-11T02:04:09.032Z,11.28
2023-04-11T02:06:35.996Z,11.26
2023-04-11T02:09:02.481Z,11.11
2023-04-11T02:11:29.221Z,11.21
2023-04-11T02:13:55.626Z,11.20
2023-04-11T02:16:25.670Z,11.05
2023-04-11T02:18:53.231Z,11.18
2023-04-11T02:21:19.670Z,11.16
2023-04-11T02:23:46.093Z,11.16
2023-04-11T02:26:12.721Z,11.17
2023-04-11T02:28:39.122Z,11.12
2023-04-11T02:31:06.034Z,11.16
2023-04-11T02:33:32.614Z,10.82
2023-04-11T02:35:59.104Z,11.09
2023-04-11T02:38:25.814Z,11.02
2023-04-11T02:40:52.254Z,11.11
2023-04-11T02:43:18.723Z,11.12
2023-04-11T02:45:45.163Z,11.08
2023-04-11T02:48:11.757Z,10.99
2023-04-11T02:50:41.132Z,10.90
2023-04-11T02:53:08.074Z,11.14
2023-04-11T02:55:35.050Z,11.07
2023-04-11T02:58:01.651Z,11.11
2023-04-11T03:00:29.232Z,10.99
2023-04-11T03:02:56.808Z,11.11
2023-04-11T03:05:23.409Z,11.03
2023-04-11T03:07:49.998Z,10.87
2023-04-11T03:10:16.568Z,10.91
2023-04-11T03:12:43.106Z,10.83
2023-04-11T03:15:09.807Z,10.61
2023-04-11T03:17:36.312Z,10.63
2023-04-11T03:20:07.099Z,10.58
2023-04-11T03:22:33.511Z,10.49
2023-04-11T03:24:59.920Z,10.39
2023-04-11T03:27:27.049Z,10.11
2023-04-11T03:29:53.734Z,10.16
2023-04-11T03:32:20.352Z,10.09
2023-04-11T03:34:46.825Z,10.09
2023-04-11T03:37:13.215Z,9.82
2023-04-11T03:39:39.611Z,9.94
2023-04-11T03:42:06.064Z,9.73
2023-04-11T03:44:32.562Z,9.83
2023-04-11T03:46:59.004Z,9.71
2023-04-11T03:49:25.468Z,9.77
2023-04-11T03:51:52.129Z,9.69
2023-04-11T03:54:18.704Z,9.50
2023-04-11T03:56:45.232Z,9.73
2023-04-11T03:59:11.735Z,9.65
2023-04-11T04:01:38.598Z,9.52
2023-04-11T04:04:05.865Z,9.63
2023-04-11T04:06:32.411Z,9.59
2023-04-11T04:08:59.712Z,9.60
2023-04-11T04:11:26.238Z,9.64
2023-04-11T04:13:52.866Z,9.58
2023-04-11T04:16:19.383Z,9.62
2023-04-11T04:18:45.977Z,9.57
2023-04-11T04:21:12.663Z,9.57
2023-04-11T04:23:47.466Z,9.52
2023-04-11T04:26:16.236Z,9.40
2023-04-11T04:28:46.387Z,9.41
2023-04-11T04:31:13.216Z,9.44
2023-04-11T04:33:42.752Z,9.49
2023-04-11T04:36:12.276Z,9.46
2023-04-11T04:38:42.051Z,9.47
2023-04-11T04:41:14.957Z,9.46
2023-04-11T04:43:44.761Z,9.43
2023-04-11T04:46:11.362Z,9.40
2023-04-11T04:48:38.132Z,9.17
2023-04-11T04:51:05.590Z,9.45
2023-04-11T04:53:34.635Z,9.28
2023-04-11T04:56:01.859Z,9.44
2023-04-11T04:58:28.361Z,9.48
2023-04-11T05:00:56.287Z,9.47
2023-04-11T05:03:23.165Z,9.51
2023-04-11T05:05:49.887Z,9.51
2023-04-11T05:08:19.471Z,9.53
2023-04-11T05:10:46.159Z,9.58
2023-04-11T05:13:12.740Z,9.52
2023-04-11T05:15:39.176Z,9.48
2023-04-11T05:18:05.842Z,9.58
2023-04-11T05:20:32.271Z,9.55
2023-04-11T05:22:58.742Z,9.55
2023-04-11T05:25:25.964Z,9.55
2023-04-11T05:27:52.371Z,9.51
2023-04-11T05:30:18.910Z,9.33
2023-04-11T05:32:46.443Z,9.46
2023-04-11T05:35:13.108Z,9.46
2023-04-11T05:37:40.059Z,9.24
2023-04-11T05:40:08.850Z,9.50
2023-04-11T05:42:35.597Z,9.55
2023-04-11T05:45:01.983Z,9.59
2023-04-11T05:47:28.451Z,9.58
2023-04-11T05:49:54.920Z,9.73
2023-04-11T05:52:21.356Z,9.80
2023-04-11T05:54:47.812Z,9.66
2023-04-11T05:57:14.227Z,9.87
2023-04-11T05:59:40.630Z,9.99
2023-04-11T06:02:07.099Z,9.98
2023-04-11T06:04:33.928Z,9.59
2023-04-11T06:07:02.467Z,10.01
2023-04-11T06:09:29.401Z,10.07
2023-04-11T06:11:57.683Z,10.12
2023-04-11T06:14:24.124Z,10.14
2023-04-11T06:16:50.588Z,10.17
2023-04-11T06:19:17.003Z,10.27
2023-04-11T06:21:43.403Z,10.28
2023-04-11T06:24:10.974Z,10.11
2023-04-11T06:26:37.367Z,10.25
2023-04-11T06:29:05.713Z,10.17
2023-04-11T06:31:33.150Z,10.26
2023-04-11T06:34:02.823Z,10.28
2023-04-11T06:36:29.842Z,10.28
2023-04-11T06:38:56.277Z,10.26
2023-04-11T06:41:23.176Z,10.12
2023-04-11T06:43:49.616Z,10.34
2023-04-11T06:46:16.196Z,10.29
2023-04-11T06:48:42.907Z,10.42
2023-04-11T06:51:10.552Z,10.16
2023-04-11T06:53:37.218Z,10.40
2023-04-11T06:56:04.008Z,10.48
2023-04-11T06:58:30.562Z,10.58
2023-04-11T07:00:56.998Z,10.66
2023-04-11T07:03:25.174Z,10.60
2023-04-11T07:05:52.168Z,10.75
2023-04-11T07:08:18.776Z,10.81
2023-04-11T07:10:45.446Z,10.83
2023-04-11T07:13:12.009Z,10.79
2023-04-11T07:15:38.522Z,10.80
2023-04-11T07:18:05.023Z,10.73
2023-04-11T07:20:33.059Z,10.67
2023-04-11T07:22:59.515Z,10.21
2023-04-11T07:25:30.378Z,10.47
2023-04-11T07:27:57.043Z,10.30
2023-04-11T07:30:23.687Z,10.07
2023-04-11T07:32:50.228Z,10.13
2023-04-11T07:35:16.950Z,10.01
2023-04-11T07:37:43.399Z,9.95
2023-04-11T07:40:11.878Z,9.85
2023-04-11T07:42:38.418Z,9.72
2023-04-11T07:45:05.716Z,9.75
2023-04-11T07:47:32.184Z,9.71
2023-04-11T07:49:58.952Z,9.46
2023-04-11T07:52:26.017Z,9.61
2023-04-11T07:54:52.512Z,9.58
2023-04-11T07:57:19.113Z,9.50
2023-04-11T07:59:46.232Z,9.45
2023-04-11T08:02:12.955Z,9.33
2023-04-11T08:04:39.787Z,9.42
2023-04-11T08:07:06.874Z,9.36
2023-04-11T08:09:34.380Z,9.39
2023-04-11T08:12:01.732Z,9.38
2023-04-11T08:14:28.170Z,9.35
2023-04-11T08:16:54.758Z,9.34
2023-04-11T08:19:21.305Z,9.30
2023-04-11T08:21:47.748Z,9.00
2023-04-11T08:24:14.173Z,9.25
2023-04-11T08:26:40.746Z,9.28
2023-04-11T08:29:11.346Z,9.30
2023-04-11T08:31:44.525Z,9.32
2023-04-11T08:34:12.046Z,9.37
2023-04-11T08:36:38.947Z,9.39
2023-04-11T08:39:05.430Z,9.44
2023-04-11T08:41:32.302Z,9.39
2023-04-11T08:43:59.263Z,9.41
2023-04-11T08:46:25.754Z,9.51
2023-04-11T08:48:52.334Z,9.53
2023-04-11T08:51:29.271Z,9.59
2023-04-11T08:54:00.484Z,9.45
2023-04-11T08:56:26.903Z,9.64
2023-04-11T08:58:53.365Z,9.49
2023-04-11T09:01:33.134Z,9.72
2023-04-11T09:04:01.504Z,9.78
2023-04-11T09:06:33.550Z,9.74
2023-04-11T09:09:02.092Z,9.86
2023-04-11T09:11:28.580Z,10.18
2023-04-11T09:14:11.234Z,10.32
2023-04-11T09:16:53.048Z,10.41
2023-04-11T09:19:27.874Z,10.59
2023-04-11T09:21:56.772Z,10.58
2023-04-11T09:24:23.414Z,10.58
2023-04-11T09:26:50.957Z,10.48
2023-04-11T09:29:40.750Z,10.65
2023-04-11T09:32:07.745Z,10.51
2023-04-11T09:34:37.760Z,10.38
2023-04-11T09:37:04.480Z,10.41
2023-04-11T09:39:32.573Z,10.60
2023-04-11T09:41:59.346Z,10.46
2023-04-11T09:44:38.039Z,10.66
2023-04-11T09:47:04.960Z,10.77
2023-04-11T09:49:34.172Z,10.82
2023-04-11T09:52:01.277Z,11.02
2023-04-11T09:54:28.842Z,11.09
2023-04-11T09:56:57.137Z,11.11
2023-04-11T09:59:26.713Z,11.16
2023-04-11T10:01:53.538Z,11.13
2023-04-11T10:04:21.260Z,11.02
2023-04-11T10:07:02.159Z,11.04
2023-04-11T10:09:29.795Z,10.96
2023-04-11T10:11:56.826Z,10.87
2023-04-11T10:14:43.789Z,10.83
2023-04-11T10:17:21.829Z,10.77
2023-04-11T10:19:51.575Z,10.72
2023-04-11T10:22:43.783Z,10.69
2023-04-11T10:25:17.481Z,10.64
2023-04-11T10:27:49.971Z,10.66
2023-04-11T10:30:16.869Z,10.66
2023-04-11T10:33:10.127Z,10.73
2023-04-11T10:35:55.628Z,10.76
2023-04-11T10:38:37.169Z,10.78
2023-04-11T10:41:31.292Z,10.76
2023-04-11T10:44:14.762Z,10.70
2023-04-11T10:46:45.396Z,10.72
2023-04-11T10:49:11.991Z,10.59
2023-04-11T10:51:38.437Z,10.59
2023-04-11T10:54:05.169Z,10.70
2023-04-11T10:56:58.575Z,10.80
2023-04-11T10:59:31.073Z,10.84
2023-04-11T11:02:02.119Z,10.83
2023-04-11T11:04:32.497Z,10.90
2023-04-11T11:07:01.387Z,10.94
2023-04-11T11:09:28.771Z,10.97
2023-04-11T11:12:14.039Z,11.06
2023-04-11T11:14:42.958Z,11.11
2023-04-11T11:17:11.834Z,11.15
2023-04-11T11:19:43.772Z,11.29
2023-04-11T11:22:17.185Z,11.37
2023-04-11T11:24:43.649Z,11.34
2023-04-11T11:27:19.913Z,11.60
2023-04-11T11:29:46.437Z,11.63
2023-04-11T11:32:22.879Z,11.71
2023-04-11T11:34:49.458Z,11.69
2023-04-11T11:37:16.265Z,11.69
2023-04-11T11:39:43.590Z,11.42
2023-04-11T11:42:10.370Z,11.53
2023-04-11T11:44:37.560Z,11.51
2023-04-11T11:47:06.276Z,11.46
2023-04-11T11:49:46.915Z,11.34
2023-04-11T11:52:31.676Z,11.12
2023-04-11T11:54:58.414Z,11.19
2023-04-11T11:57:24.932Z,11.19
2023-04-11T11:59:56.165Z,11.18
2023-04-11T12:02:27.346Z,11.26
2023-04-11T12:05:01.311Z,11.36
2023-04-11T12:07:32.544Z,11.46
2023-04-11T12:10:09.019Z,11.39
2023-04-11T12:12:38.015Z,11.52
2023-04-11T12:15:17.117Z,11.72
2023-04-11T12:17:47.559Z,11.79
2023-04-11T12:20:15.768Z,11.85
2023-04-11T12:22:42.620Z,11.62
2023-04-11T12:25:11.634Z,11.95
2023-04-11T12:27:39.562Z,11.99
2023-04-11T12:30:06.811Z,11.94
2023-04-11T12:32:34.311Z,11.87
2023-04-11T12:35:05.271Z,11.90
2023-04-11T12:37:33.242Z,11.90
2023-04-11T12:40:00.355Z,11.79
2023-04-11T12:42:27.554Z,11.68
2023-04-11T12:44:54.724Z,11.77
2023-04-11T12:47:21.332Z,11.84
2023-04-11T12:49:47.851Z,11.92
2023-04-11T12:52:14.314Z,11.85
2023-04-11T12:54:41.178Z,11.99
2023-04-11T12:57:07.955Z,12.15
2023-04-11T12:59:34.555Z,12.12
2023-04-11T13:02:01.986Z,12.26
2023-04-11T13:04:28.794Z,12.31
2023-04-11T13:07:00.709Z,12.38
2023-04-11T13:09:34.217Z,12.04
2023-04-11T13:12:04.098Z,12.37
2023-04-11T13:14:31.015Z,12.42
2023-04-11T13:16:57.791Z,12.43
2023-04-11T13:19:24.295Z,12.41
2023-04-11T13:21:50.825Z,12.40
2023-04-11T13:24:17.434Z,12.45
2023-04-11T13:26:44.964Z,12.45
2023-04-11T13:29:12.200Z,12.35
2023-04-11T13:31:39.037Z,12.34
2023-04-11T13:34:05.576Z,12.42
2023-04-11T13:36:32.359Z,12.32
2023-04-11T13:38:59.163Z,12.18
2023-04-11T13:41:26.009Z,12.00
2023-04-11T13:43:53.005Z,11.77
2023-04-11T13:46:21.734Z,11.58
2023-04-11T13:48:48.593Z,11.35
2023-04-11T13:51:15.187Z,11.03
2023-04-11T13:53:45.539Z,10.97
2023-04-11T13:56:11.886Z,10.95
2023-04-11T13:58:39.005Z,10.65
2023-04-11T14:01:06.872Z,10.46
2023-04-11T14:03:33.835Z,10.33
2023-04-11T14:06:01.551Z,10.12
2023-04-11T14:08:29.113Z,10.10
2023-04-11T14:10:55.797Z,9.91
2023-04-11T14:13:22.352Z,9.91
2023-04-11T14:15:54.727Z,9.86
2023-04-11T14:18:31.824Z,9.83
2023-04-11T14:21:01.113Z,9.78
2023-04-11T14:23:28.997Z,9.79
2023-04-11T14:25:55.473Z,9.77
2023-04-11T14:28:22.338Z,9.71
2023-04-11T14:30:48.919Z,9.79
2023-04-11T14:33:15.668Z,9.80
2023-04-11T14:35:42.832Z,9.73
2023-04-11T14:38:09.308Z,9.90
2023-04-11T14:40:35.762Z,9.93
2023-04-11T14:43:02.299Z,9.96
2023-04-11T14:45:28.788Z,10.03
2023-04-11T14:47:55.305Z,10.09
2023-04-11T14:50:21.821Z,10.13
2023-04-11T14:52:48.629Z,10.16
2023-04-11T14:55:15.156Z,10.23
2023-04-11T14:57:44.308Z,10.28
2023-04-11T15:00:17.984Z,10.31
2023-04-11T15:02:45.608Z,10.24
2023-04-11T15:05:15.776Z,10.20
2023-04-11T15:07:42.879Z,10.12
2023-04-11T15:10:09.769Z,10.00
2023-04-11T15:12:36.234Z,9.88
2023-04-11T15:15:03.348Z,9.77
2023-04-11T15:17:29.784Z,9.71
2023-04-11T15:19:56.954Z,9.71
2023-04-11T15:22:23.624Z,9.68
2023-04-11T15:24:50.945Z,9.66
2023-04-11T15:27:20.940Z,9.63
2023-04-11T15:29:47.587Z,9.60
2023-04-11T15:32:14.004Z,9.63
2023-04-11T15:34:41.983Z,9.73
2023-04-11T15:37:11.485Z,9.82
2023-04-11T15:39:37.988Z,9.91
2023-04-11T15:42:04.854Z,10.00
2023-04-11T15:44:31.326Z,10.16
2023-04-11T15:46:57.862Z,10.23
2023-04-11T15:49:24.481Z,10.34
2023-04-11T15:51:51.085Z,10.49
2023-04-11T15:54:17.543Z,10.61
2023-04-11T15:56:44.010Z,10.60
2023-04-11T15:59:12.866Z,10.66
2023-04-11T16:01:40.440Z,10.64
2023-04-11T16:04:11.364Z,10.64
2023-04-11T16:06:37.935Z,10.51
2023-04-11T16:09:04.564Z,10.51
2023-04-11T16:11:31.037Z,10.45
2023-04-11T16:13:57.972Z,10.50
2023-04-11T16:16:24.710Z,10.57
2023-04-11T16:18:52.402Z,10.64
2023-04-11T16:21:18.909Z,10.75
2023-04-11T16:23:45.691Z,10.85
2023-04-11T16:26:12.118Z,10.71
2023-04-11T16:28:38.650Z,10.82
2023-04-11T16:31:05.395Z,11.11
2023-04-11T16:33:31.824Z,11.14
2023-04-11T16:35:58.319Z,11.16
2023-04-11T16:38:24.828Z,11.18
2023-04-11T16:40:51.253Z,11.08
2023-04-11T16:43:17.791Z,11.13
2023-04-11T16:45:44.658Z,11.16
2023-04-11T16:48:11.682Z,11.03
2023-04-11T16:50:38.655Z,11.05
2023-04-11T16:53:05.262Z,10.88
2023-04-11T16:55:31.752Z,10.90
2023-04-11T16:57:58.274Z,10.85
2023-04-11T17:00:25.064Z,10.84
2023-04-11T17:02:51.717Z,10.80
2023-04-11T17:05:18.905Z,10.77
2023-04-11T17:07:45.422Z,10.73
2023-04-11T17:10:12.367Z,10.53
2023-04-11T17:12:38.952Z,10.71
2023-04-11T17:15:08.338Z,10.71
2023-04-11T17:17:35.160Z,10.70
2023-04-11T17:20:07.640Z,10.16
2023-04-11T17:22:34.060Z,10.62
2023-04-11T17:25:00.509Z,10.63
2023-04-11T17:27:27.279Z,10.40
2023-04-11T17:29:53.828Z,10.60
2023-04-11T17:32:20.339Z,10.58
2023-04-11T17:34:47.744Z,10.52
2023-04-11T17:37:14.193Z,10.54
2023-04-11T17:39:41.545Z,10.48
2023-04-11T17:42:08.175Z,10.44
2023-04-11T17:44:34.778Z,10.42
2023-04-11T17:47:01.243Z,10.39
2023-04-11T17:49:27.732Z,10.28
2023-04-11T17:51:59.133Z,10.33
2023-04-11T17:54:26.044Z,10.28
2023-04-11T17:56:52.652Z,10.23
2023-04-11T17:59:19.303Z,10.18
2023-04-11T18:01:47.013Z,10.06
2023-04-11T18:04:14.621Z,9.97
2023-04-11T18:06:42.602Z,9.96
2023-04-11T18:09:09.218Z,9.99
2023-04-11T18:11:36.305Z,10.00
2023-04-11T18:14:02.860Z,9.95
2023-04-11T18:16:29.461Z,9.94
2023-04-11T18:18:56.817Z,9.83
2023-04-11T18:21:23.222Z,9.70
2023-04-11T18:23:49.840Z,9.74
2023-04-11T18:26:16.322Z,9.61
2023-04-11T18:28:42.973Z,9.64
2023-04-11T18:31:10.282Z,9.64
2023-04-11T18:33:40.260Z,9.63
2023-04-11T18:36:08.130Z,9.56
2023-04-11T18:38:34.641Z,9.44
2023-04-11T18:41:06.701Z,9.50
2023-04-11T18:43:34.094Z,9.50
2023-04-11T18:46:03.770Z,9.36
2023-04-11T18:48:31.656Z,9.36
2023-04-11T18:50:59.434Z,9.28
2023-04-11T18:53:26.212Z,9.19
2023-04-11T18:56:05.981Z,8.88
2023-04-11T18:59:09.253Z,9.02
2023-04-11T19:01:36.996Z,8.87
2023-04-11T19:04:03.929Z,8.73
2023-04-11T19:06:30.829Z,8.60
2023-04-11T19:08:57.374Z,8.55
2023-04-11T19:11:23.832Z,8.45
2023-04-11T19:14:07.157Z,8.36
2023-04-11T19:16:40.431Z,7.71
2023-04-11T19:19:06.867Z,8.17
2023-04-11T19:21:33.378Z,7.85
2023-04-11T19:23:59.871Z,7.99
2023-04-11T19:26:27.310Z,7.90
2023-04-11T19:28:55.027Z,7.83
2023-04-11T19:31:27.131Z,7.77
2023-04-11T19:33:53.611Z,7.69
2023-04-11T19:36:20.085Z,7.62
2023-04-11T19:38:46.961Z,7.55
2023-04-11T19:41:15.039Z,7.38
2023-04-11T19:43:42.892Z,7.45
2023-04-11T19:46:12.057Z,7.39
2023-04-11T19:48:42.600Z,7.35
2023-04-11T19:51:10.508Z,7.12
2023-04-11T19:53:38.304Z,7.26
2023-04-11T19:56:07.149Z,7.18
2023-04-11T19:58:35.257Z,7.07
2023-04-11T20:01:02.955Z,6.98
2023-04-11T20:03:29.653Z,7.02
2023-04-11T20:05:56.990Z,6.98
2023-04-11T20:08:26.386Z,6.91
2023-04-11T20:10:54.368Z,6.64
2023-04-11T20:13:20.917Z,6.81
2023-04-11T20:15:47.372Z,6.78
2023-04-11T20:18:14.045Z,6.72
2023-04-11T20:20:40.517Z,6.46
2023-04-11T20:23:07.022Z,6.63
2023-04-11T20:25:34.694Z,6.56
2023-04-11T20:28:01.747Z,6.52
2023-04-11T20:30:30.052Z,6.27
2023-04-11T20:32:56.708Z,6.46
2023-04-11T20:35:23.315Z,6.42
2023-04-11T20:37:50.220Z,6.21
2023-04-11T20:40:17.254Z,6.32
2023-04-11T20:42:47.699Z,6.27
2023-04-11T20:45:16.778Z,6.23
2023-04-11T20:47:46.204Z,6.20
2023-04-11T20:50:17.486Z,6.13
2023-04-11T20:52:45.991Z,6.14
2023-04-11T20:55:16.074Z,6.07
2023-04-11T20:57:42.946Z,6.07
2023-04-11T21:00:13.853Z,5.99
2023-04-11T21:02:44.109Z,5.98
2023-04-11T21:05:12.029Z,5.94
2023-04-11T21:07:39.356Z,5.89
2023-04-11T21:10:07.371Z,5.86
2023-04-11T21:12:34.797Z,5.81
2023-04-11T21:15:02.451Z,5.78
2023-04-11T21:17:32.836Z,5.51
2023-04-11T21:20:00.535Z,5.68
2023-04-11T21:22:27.307Z,5.62
2023-04-11T21:24:53.742Z,5.58
2023-04-11T21:27:20.188Z,5.49
2023-04-11T21:29:46.697Z,5.42
2023-04-11T21:32:13.240Z,5.43
2023-04-11T21:34:39.720Z,5.28
2023-04-11T21:37:06.281Z,5.42
2023-04-11T21:39:32.682Z,5.43
2023-04-11T21:42:00.153Z,5.34
2023-04-11T21:44:26.611Z,5.15
2023-04-11T21:46:53.236Z,5.32
2023-04-11T21:49:19.788Z,5.27
2023-04-11T21:51:46.196Z,5.23
2023-04-11T21:54:12.710Z,5.14
2023-04-11T21:56:39.468Z,5.13
2023-04-11T21:59:06.094Z,5.08
2023-04-11T22:01:32.576Z,5.03
2023-04-11T22:03:59.649Z,4.91
2023-04-11T22:06:26.604Z,4.97
2023-04-11T22:08:53.139Z,4.94
2023-04-11T22:11:20.307Z,4.92
2023-04-11T22:13:48.239Z,4.76
2023-04-11T22:16:14.737Z,4.87
2023-04-11T22:18:47.398Z,4.85
2023-04-11T22:21:21.619Z,4.68
2023-04-11T22:23:55.904Z,4.69
2023-04-11T22:26:33.961Z,4.68
2023-04-11T22:29:05.370Z,4.63
2023-04-11T22:31:38.332Z,4.48
2023-04-11T22:34:05.350Z,4.57
2023-04-11T22:36:35.826Z,4.51
2023-04-11T22:39:06.791Z,4.49
2023-04-11T22:41:35.370Z,4.42
2023-04-11T22:44:02.526Z,4.33
2023-04-11T22:46:39.634Z,4.30
2023-04-11T22:49:09.637Z,4.37
2023-04-11T22:51:37.987Z,4.34
2023-04-11T22:54:05.186Z,4.28
2023-04-11T22:56:31.667Z,4.24
2023-04-11T22:58:58.524Z,4.20
2023-04-11T23:01:24.975Z,4.19
2023-04-11T23:03:51.923Z,4.11
2023-04-11T23:06:19.791Z,4.17
2023-04-11T23:08:46.666Z,4.15
2023-04-11T23:11:13.228Z,4.13
2023-04-11T23:13:39.687Z,4.16
2023-04-11T23:16:06.929Z,4.16
2023-04-11T23:18:33.356Z,4.04
2023-04-11T23:20:59.886Z,4.20
2023-04-11T23:23:26.321Z,4.10
2023-04-11T23:25:53.194Z,4.20
2023-04-11T23:28:19.803Z,4.23
2023-04-11T23:30:46.521Z,4.21
2023-04-11T23:33:13.803Z,4.28
2023-04-11T23:35:40.280Z,4.29
2023-04-11T23:38:06.902Z,4.32
2023-04-11T23:40:33.592Z,4.37
2023-04-11T23:43:00.056Z,4.41
2023-04-11T23:45:26.601Z,4.43
2023-04-11T23:47:53.208Z,4.48
2023-04-11T23:50:19.957Z,4.50
2023-04-11T23:52:47.030Z,4.54
2023-04-11T23:55:14.100Z,4.40
2023-04-11T23:57:40.652Z,4.58
